Time;durP1;ratioP1;P1;durP2;ratioP2;P2;SDS_P1;SDS_P2;PMS_P1;PMS_P2;Temp;Humidity;BMP_temperature;BMP_pressure;BME280_temperature;BME280_humidity;BME280_pressure;Samples;Min_cycle;Max_cycle;Signal;HPM_P1;HPM_P2
2022/09/13 00:01:49;;;;;;;13.88;10.50;;;;;;;;;;5050638;28;20072;-64
2022/09/13 00:04:15;;;;;;;14.25;11.27;;;;;;;;;;5035752;28;20115;-64
2022/09/13 00:06:41;;;;;;;14.50;11.10;;;;;;;;;;5031052;28;20045;-64
2022/09/13 00:09:07;;;;;;;16.20;10.93;;;;;;;;;;5030549;28;20057;-64
2022/09/13 00:11:34;;;;;;;20.38;10.60;;;;;;;;;;5030979;28;20064;-64
2022/09/13 00:14:00;;;;;;;13.23;10.02;;;;;;;;;;5031222;28;20632;-64
2022/09/13 00:16:27;;;;;;;14.95;11.57;;;;;;;;;;5030742;28;20120;-64
2022/09/13 00:18:54;;;;;;;15.65;11.48;;;;;;;;;;5031117;28;20065;-64
2022/09/13 00:21:20;;;;;;;15.20;11.85;;;;;;;;;;5031149;28;20124;-64
2022/09/13 00:23:47;;;;;;;17.55;11.93;;;;;;;;;;5012811;28;20120;-64
2022/09/13 00:26:14;;;;;;;18.17;12.30;;;;;;;;;;5023719;28;20256;-64
2022/09/13 00:28:40;;;;;;;18.75;12.85;;;;;;;;;;5032911;28;20116;-64
2022/09/13 00:31:08;;;;;;;16.75;12.73;;;;;;;;;;5050393;28;20120;-64
2022/09/13 00:33:34;;;;;;;19.02;13.02;;;;;;;;;;5050756;28;20368;-63
2022/09/13 00:36:07;;;;;;;15.50;12.93;;;;;;;;;;5050808;28;20041;-63
2022/09/13 00:38:37;;;;;;;19.40;13.43;;;;;;;;;;5050305;28;20044;-63
2022/09/13 00:41:04;;;;;;;17.10;13.07;;;;;;;;;;5050719;28;20037;-63
2022/09/13 00:43:47;;;;;;;16.90;13.68;;;;;;;;;;5050776;28;20047;-63
2022/09/13 00:46:15;;;;;;;20.90;14.35;;;;;;;;;;5050150;28;20075;-63
2022/09/13 00:48:42;;;;;;;21.85;14.10;;;;;;;;;;5050502;28;20036;-63
2022/09/13 00:51:08;;;;;;;19.23;13.60;;;;;;;;;;5050644;28;20436;-63
2022/09/13 00:53:36;;;;;;;21.98;14.50;;;;;;;;;;5049864;28;20088;-63
2022/09/13 00:56:06;;;;;;;20.92;15.38;;;;;;;;;;5050534;28;20505;-63
2022/09/13 00:58:34;;;;;;;19.30;15.27;;;;;;;;;;5050487;28;20045;-63
2022/09/13 01:01:01;;;;;;;20.58;15.85;;;;;;;;;;5050158;28;20121;-63
2022/09/13 01:03:28;;;;;;;20.60;15.70;;;;;;;;;;5041507;28;20049;-63
2022/09/13 01:06:01;;;;;;;21.85;16.58;;;;;;;;;;5030517;28;20495;-63
2022/09/13 01:08:30;;;;;;;22.35;16.15;;;;;;;;;;5029712;28;20037;-63
2022/09/13 01:10:58;;;;;;;23.40;16.63;;;;;;;;;;5030313;28;20099;-63
2022/09/13 01:13:26;;;;;;;23.98;16.60;;;;;;;;;;5011784;28;20037;-63
2022/09/13 01:15:52;;;;;;;20.70;15.98;;;;;;;;;;5029812;28;20041;-63
2022/09/13 01:18:18;;;;;;;20.55;16.08;;;;;;;;;;5029727;28;20063;-63
2022/09/13 01:21:03;;;;;;;22.05;16.75;;;;;;;;;;5030085;28;20087;-63
2022/09/13 01:23:47;;;;;;;22.67;15.93;;;;;;;;;;5029275;28;20088;-63
2022/09/13 01:26:23;;;;;;;22.70;15.90;;;;;;;;;;5040443;28;20037;-64
2022/09/13 01:28:55;;;;;;;21.80;16.15;;;;;;;;;;5049673;28;20068;-64
2022/09/13 01:31:33;;;;;;;22.15;17.25;;;;;;;;;;5049588;28;20117;-64
2022/09/13 01:34:06;;;;;;;25.30;18.60;;;;;;;;;;5050221;28;20045;-64
2022/09/13 01:36:47;;;;;;;25.90;18.60;;;;;;;;;;5050136;28;20041;-64
2022/09/13 01:39:16;;;;;;;27.55;18.95;;;;;;;;;;5049792;28;20083;-64
2022/09/13 01:42:01;;;;;;;30.92;18.77;;;;;;;;;;5050034;28;20123;-64
2022/09/13 01:44:39;;;;;;;30.38;20.85;;;;;;;;;;5049981;28;20041;-64
2022/09/13 01:47:11;;;;;;;27.60;20.13;;;;;;;;;;5049322;28;20041;-64
2022/09/13 01:49:43;;;;;;;32.50;21.20;;;;;;;;;;5015422;28;20086;-64
2022/09/13 01:52:20;;;;;;;32.35;22.27;;;;;;;;;;5049986;28;20087;-64
2022/09/13 01:54:46;;;;;;;30.80;21.60;;;;;;;;;;5049586;28;20048;-64
2022/09/13 01:57:27;;;;;;;37.78;22.27;;;;;;;;;;5049838;28;20048;-64
2022/09/13 01:59:54;;;;;;;34.15;23.45;;;;;;;;;;5049547;28;20060;-64
2022/09/13 02:02:27;;;;;;;33.60;23.05;;;;;;;;;;5049960;28;20131;-64
2022/09/13 02:04:53;;;;;;;;;;;;;;;;;;5030452;28;20037;-64
2022/09/13 02:07:25;;;;;;;32.53;21.67;;;;;;;;;;5032575;28;20284;-64
2022/09/13 02:09:55;;;;;;;37.13;22.50;;;;;;;;;;5033255;28;20072;-64
2022/09/13 02:12:23;;;;;;;38.25;22.58;;;;;;;;;;5033425;28;20064;-63
2022/09/13 02:15:09;;;;;;;31.98;20.88;;;;;;;;;;5032963;28;20045;-64
2022/09/13 02:17:37;;;;;;;33.35;22.00;;;;;;;;;;5032919;28;20481;-64
2022/09/13 02:20:16;;;;;;;32.83;20.92;;;;;;;;;;5033418;28;20052;-64
2022/09/13 02:22:45;;;;;;;35.42;22.67;;;;;;;;;;5032769;28;20500;-64
2022/09/13 02:25:17;;;;;;;28.40;20.45;;;;;;;;;;5017552;28;20050;-64
2022/09/13 02:27:45;;;;;;;33.20;21.42;;;;;;;;;;5052933;28;20062;-64
2022/09/13 02:30:13;;;;;;;31.02;20.38;;;;;;;;;;5052612;28;20412;-64
2022/09/13 02:32:59;;;;;;;31.75;20.45;;;;;;;;;;5052969;28;20056;-64
2022/09/13 02:35:52;;;;;;;33.30;20.58;;;;;;;;;;5053062;28;20037;-63
2022/09/13 02:38:18;;;;;;;;;;;;;;;;;;4997830;28;20400;-64
2022/09/13 02:40:49;;;;;;;32.72;19.92;;;;;;;;;;5052921;28;19927;-64
2022/09/13 02:43:24;;;;;;;33.33;20.80;;;;;;;;;;5052773;28;20045;-63
2022/09/13 02:45:58;;;;;;;29.95;19.13;;;;;;;;;;5052397;28;20487;-64
2022/09/13 02:48:48;;;;;;;26.42;19.00;;;;;;;;;;5052619;28;20033;-64
2022/09/13 02:51:28;;;;;;;28.45;18.88;;;;;;;;;;5039775;28;20056;-64
2022/09/13 02:54:09;;;;;;;28.40;19.27;;;;;;;;;;5052195;28;20091;-64
2022/09/13 02:56:35;;;;;;;28.92;19.35;;;;;;;;;;5052714;28;20048;-64
2022/09/13 02:59:10;;;;;;;26.10;17.98;;;;;;;;;;5052172;28;20128;-64
2022/09/13 03:01:38;;;;;;;31.85;19.42;;;;;;;;;;5052598;28;20047;-64
2022/09/13 03:04:05;;;;;;;25.10;17.55;;;;;;;;;;5020472;28;20104;-64
2022/09/13 03:06:31;;;;;;;27.95;18.23;;;;;;;;;;5032041;28;20451;-63
2022/09/13 03:09:00;;;;;;;26.83;17.85;;;;;;;;;;5031948;28;20412;-64
2022/09/13 03:11:35;;;;;;;29.27;17.77;;;;;;;;;;5032094;28;20124;-64
2022/09/13 03:14:01;;;;;;;24.55;17.50;;;;;;;;;;5031825;28;20135;-64
2022/09/13 03:16:37;;;;;;;23.98;16.92;;;;;;;;;;5031930;28;20045;-64
2022/09/13 03:19:25;;;;;;;25.00;17.23;;;;;;;;;;5031673;28;20063;-64
2022/09/13 03:21:58;;;;;;;28.23;18.15;;;;;;;;;;5013804;28;20045;-64
2022/09/13 03:24:59;;;;;;;24.05;17.30;;;;;;;;;;5032095;28;20476;-64
2022/09/13 03:27:37;;;;;;;27.90;18.33;;;;;;;;;;4950980;29;20074;-64
2022/09/13 03:30:07;;;;;;;24.98;17.38;;;;;;;;;;5021657;28;20052;-64
2022/09/13 03:32:41;;;;;;;27.50;17.45;;;;;;;;;;5031711;28;20045;-64
2022/09/13 03:35:16;;;;;;;25.63;17.90;;;;;;;;;;5031867;28;20045;-64
2022/09/13 03:37:48;;;;;;;26.52;16.85;;;;;;;;;;5031171;28;20128;-64
2022/09/13 03:40:20;;;;;;;24.90;16.35;;;;;;;;;;5031936;28;20103;-64
2022/09/13 03:42:57;;;;;;;24.48;17.23;;;;;;;;;;5031455;28;20044;-64
2022/09/13 03:45:27;;;;;;;26.30;16.80;;;;;;;;;;5031501;28;20042;-64
2022/09/13 03:47:53;;;;;;;24.48;16.58;;;;;;;;;;5031363;28;20122;-64
2022/09/13 03:50:20;;;;;;;24.08;17.33;;;;;;;;;;5031595;28;20045;-64
2022/09/13 03:52:48;;;;;;;26.55;17.27;;;;;;;;;;5031273;28;20079;-64
2022/09/13 03:55:14;;;;;;;26.05;16.45;;;;;;;;;;5031513;28;20041;-64
2022/09/13 03:57:40;;;;;;;25.17;16.58;;;;;;;;;;5031481;28;20045;-64
2022/09/13 04:00:06;;;;;;;27.42;16.02;;;;;;;;;;5030819;28;20120;-63
2022/09/13 04:02:32;;;;;;;22.65;15.20;;;;;;;;;;5032596;28;20044;-63
2022/09/13 04:04:58;;;;;;;24.83;16.60;;;;;;;;;;5051174;28;20367;-64
2022/09/13 04:07:24;;;;;;;23.98;16.17;;;;;;;;;;5050617;28;20045;-64
2022/09/13 04:09:51;;;;;;;25.50;15.75;;;;;;;;;;5050955;28;20053;-64
2022/09/13 04:12:17;;;;;;;20.55;14.85;;;;;;;;;;5051287;28;20040;-64
2022/09/13 04:14:43;;;;;;;21.20;14.95;;;;;;;;;;5050789;28;20048;-64
2022/09/13 04:17:09;;;;;;;24.35;15.85;;;;;;;;;;5051028;28;20043;-64
2022/09/13 04:19:36;;;;;;;22.10;15.18;;;;;;;;;;5051208;28;20041;-64
2022/09/13 04:22:02;;;;;;;24.30;15.23;;;;;;;;;;5050337;28;20048;-64
2022/09/13 04:24:28;;;;;;;22.48;15.50;;;;;;;;;;5032759;28;20041;-64
2022/09/13 04:26:55;;;;;;;21.20;15.15;;;;;;;;;;5034513;28;20095;-64
2022/09/13 04:29:22;;;;;;;22.98;15.38;;;;;;;;;;5029936;28;20378;-64
2022/09/13 04:31:48;;;;;;;21.35;15.18;;;;;;;;;;5030968;28;20392;-64
2022/09/13 04:34:14;;;;;;;22.98;14.40;;;;;;;;;;5030947;28;20064;-64
2022/09/13 04:36:40;;;;;;;22.42;15.32;;;;;;;;;;5030196;28;20048;-64
2022/09/13 04:39:07;;;;;;;19.52;15.05;;;;;;;;;;5030791;28;20076;-64
2022/09/13 04:41:33;;;;;;;21.35;15.30;;;;;;;;;;5030806;28;20409;-64
2022/09/13 04:43:59;;;;;;;21.52;15.07;;;;;;;;;;5030122;28;20056;-63
2022/09/13 04:46:26;;;;;;;22.25;14.20;;;;;;;;;;5030712;28;20467;-63
2022/09/13 04:48:52;;;;;;;22.08;14.20;;;;;;;;;;5012827;28;20087;-63
2022/09/13 04:51:20;;;;;;;24.27;14.55;;;;;;;;;;5030248;28;20618;-63
2022/09/13 04:53:46;;;;;;;21.30;14.50;;;;;;;;;;5030567;28;20098;-63
2022/09/13 04:56:14;;;;;;;21.65;13.88;;;;;;;;;;5030257;28;20458;-63
2022/09/13 04:58:40;;;;;;;18.10;13.00;;;;;;;;;;5030050;28;20049;-63
2022/09/13 05:01:07;;;;;;;20.60;14.00;;;;;;;;;;5033031;28;20040;-63
2022/09/13 05:03:34;;;;;;;18.35;13.77;;;;;;;;;;5040644;28;20065;-63
2022/09/13 05:06:07;;;;;;;18.45;12.38;;;;;;;;;;5046338;28;20431;-63
2022/09/13 05:08:34;;;;;;;15.20;11.88;;;;;;;;;;5047291;28;20120;-63
2022/09/13 05:11:00;;;;;;;20.60;12.90;;;;;;;;;;5030141;28;20083;-63
2022/09/13 05:13:26;;;;;;;17.10;12.30;;;;;;;;;;5029643;28;20045;-64
2022/09/13 05:15:55;;;;;;;17.55;11.77;;;;;;;;;;5040439;28;20804;-63
2022/09/13 05:18:22;;;;;;;17.55;12.80;;;;;;;;;;5050075;28;20052;-63
2022/09/13 05:20:48;;;;;;;17.63;12.27;;;;;;;;;;5049009;28;20052;-63
2022/09/13 05:23:14;;;;;;;17.50;12.13;;;;;;;;;;5050164;28;20041;-63
2022/09/13 05:25:40;;;;;;;16.67;11.35;;;;;;;;;;5043268;28;20496;-63
2022/09/13 05:28:06;;;;;;;19.85;13.10;;;;;;;;;;5029580;28;20126;-63
2022/09/13 05:30:32;;;;;;;21.05;12.52;;;;;;;;;;5029959;28;20041;-63
2022/09/13 05:32:58;;;;;;;16.70;11.85;;;;;;;;;;5034595;28;20048;-63
2022/09/13 05:35:24;;;;;;;15.70;11.55;;;;;;;;;;5031511;28;20041;-63
2022/09/13 05:37:50;;;;;;;16.42;10.80;;;;;;;;;;5040751;28;20045;-63
2022/09/13 05:40:16;;;;;;;13.07;9.23;;;;;;;;;;5030453;28;20041;-63
2022/09/13 05:42:42;;;;;;;13.77;9.45;;;;;;;;;;5041586;28;20033;-63
2022/09/13 05:45:09;;;;;;;12.63;8.88;;;;;;;;;;5053695;28;20037;-63
2022/09/13 05:47:35;;;;;;;15.95;9.18;;;;;;;;;;5052520;28;20048;-63
2022/09/13 05:50:01;;;;;;;12.68;8.52;;;;;;;;;;5053096;28;20033;-63
2022/09/13 05:52:27;;;;;;;11.27;7.47;;;;;;;;;;5036423;28;20091;-63
2022/09/13 05:54:53;;;;;;;10.07;7.10;;;;;;;;;;5048044;28;20154;-63
2022/09/13 05:57:19;;;;;;;10.55;6.40;;;;;;;;;;5041745;28;20045;-63
2022/09/13 05:59:46;;;;;;;8.93;5.50;;;;;;;;;;5052769;28;20045;-63
2022/09/13 06:02:12;;;;;;;8.38;4.75;;;;;;;;;;5044391;28;20045;-63
2022/09/13 06:04:38;;;;;;;11.20;7.22;;;;;;;;;;5043437;28;20531;-63
2022/09/13 06:07:04;;;;;;;9.10;4.88;;;;;;;;;;5042628;28;20037;-63
2022/09/13 06:09:30;;;;;;;6.13;3.97;;;;;;;;;;5042881;28;20057;-63
2022/09/13 06:11:56;;;;;;;8.82;4.65;;;;;;;;;;5051112;28;20123;-64
2022/09/13 06:14:22;;;;;;;6.32;4.00;;;;;;;;;;5049655;28;20442;-64
2022/09/13 06:16:48;;;;;;;5.80;2.90;;;;;;;;;;5052468;28;20067;-64
2022/09/13 06:19:15;;;;;;;7.57;3.20;;;;;;;;;;5048820;28;20131;-64
2022/09/13 06:21:41;;;;;;;6.10;2.95;;;;;;;;;;5051979;28;20037;-64
2022/09/13 06:24:07;;;;;;;6.55;3.35;;;;;;;;;;5052886;28;20041;-64
2022/09/13 06:26:33;;;;;;;5.32;2.75;;;;;;;;;;5041585;28;20044;-64
2022/09/13 06:28:59;;;;;;;7.63;3.55;;;;;;;;;;5032682;28;20473;-64
2022/09/13 06:31:27;;;;;;;6.55;2.60;;;;;;;;;;5038955;28;20068;-64
2022/09/13 06:33:57;;;;;;;6.25;2.65;;;;;;;;;;5031618;28;20067;-64
2022/09/13 06:36:24;;;;;;;5.70;2.95;;;;;;;;;;5032203;28;20045;-64
2022/09/13 06:38:50;;;;;;;7.20;2.92;;;;;;;;;;5047135;28;20056;-64
2022/09/13 06:41:17;;;;;;;6.55;2.80;;;;;;;;;;5031350;28;20045;-64
2022/09/13 06:43:43;;;;;;;11.75;2.78;;;;;;;;;;5044723;28;20476;-64
2022/09/13 06:46:14;;;;;;;5.78;2.20;;;;;;;;;;5051374;28;20044;-64
2022/09/13 06:48:41;;;;;;;4.07;2.20;;;;;;;;;;5045221;28;20128;-64
2022/09/13 06:51:08;;;;;;;3.80;2.17;;;;;;;;;;5024276;28;20055;-65
2022/09/13 06:53:35;;;;;;;6.97;2.28;;;;;;;;;;5027822;28;20052;-63
2022/09/13 06:56:06;;;;;;;7.25;2.17;;;;;;;;;;5041217;28;20488;-65
2022/09/13 06:58:33;;;;;;;6.35;2.60;;;;;;;;;;5044478;28;20152;-63
2022/09/13 07:01:19;;;;;;;4.28;2.40;;;;;;;;;;5048387;28;20052;-63
2022/09/13 07:03:46;;;;;;;3.65;2.40;;;;;;;;;;5035973;28;20045;-64
2022/09/13 07:06:14;;;;;;;3.88;2.95;;;;;;;;;;5043628;28;20045;-63
2022/09/13 07:08:40;;;;;;;8.07;3.20;;;;;;;;;;5040433;28;20043;-63
2022/09/13 07:11:07;;;;;;;7.28;2.75;;;;;;;;;;5017710;28;20223;-62
2022/09/13 07:13:33;;;;;;;8.13;2.80;;;;;;;;;;5045339;28;20045;-62
2022/09/13 07:16:02;;;;;;;5.38;2.35;;;;;;;;;;5041238;28;20045;-66
2022/09/13 07:18:29;;;;;;;6.32;2.40;;;;;;;;;;5044937;28;20083;-64
2022/09/13 07:21:00;;;;;;;8.93;3.30;;;;;;;;;;5034144;28;20385;-63
2022/09/13 07:23:26;;;;;;;4.57;2.35;;;;;;;;;;5045769;28;20049;-64
2022/09/13 07:26:00;;;;;;;7.40;2.30;;;;;;;;;;5027484;28;20049;-63
2022/09/13 07:28:27;;;;;;;6.50;2.30;;;;;;;;;;5040585;28;20044;-63
2022/09/13 07:30:53;;;;;;;4.72;2.10;;;;;;;;;;5047237;28;20091;-64
2022/09/13 07:33:19;;;;;;;7.82;2.60;;;;;;;;;;5040173;28;20454;-65
2022/09/13 07:35:45;;;;;;;5.88;2.20;;;;;;;;;;5043441;28;20668;-63
2022/09/13 07:38:12;;;;;;;6.07;2.20;;;;;;;;;;5041266;28;20110;-63
2022/09/13 07:40:38;;;;;;;10.30;5.25;;;;;;;;;;5035805;28;20041;-63
2022/09/13 07:43:04;;;;;;;6.82;2.88;;;;;;;;;;5040237;28;20503;-65
2022/09/13 07:45:30;;;;;;;6.20;2.50;;;;;;;;;;5041133;28;20045;-64
2022/09/13 07:47:56;;;;;;;7.18;2.95;;;;;;;;;;5041011;28;20499;-64
2022/09/13 07:50:22;;;;;;;8.43;3.88;;;;;;;;;;5048321;28;20126;-64
2022/09/13 07:52:48;;;;;;;5.85;1.77;;;;;;;;;;5024000;28;20120;-64
2022/09/13 07:55:14;;;;;;;8.73;1.75;;;;;;;;;;5043699;28;20053;-63
2022/09/13 07:57:40;;;;;;;6.55;2.30;;;;;;;;;;5044820;28;20098;-61
2022/09/13 08:00:07;;;;;;;7.20;1.63;;;;;;;;;;5041773;28;20045;-61
2022/09/13 08:02:35;;;;;;;5.15;1.30;;;;;;;;;;5047699;28;20048;-61
2022/09/13 08:05:01;;;;;;;5.97;1.33;;;;;;;;;;5039347;28;20423;-60
2022/09/13 08:07:27;;;;;;;4.88;1.15;;;;;;;;;;5045323;28;20036;-62
2022/09/13 08:09:55;;;;;;;11.05;1.65;;;;;;;;;;5045920;28;20074;-64
2022/09/13 08:12:21;;;;;;;4.85;1.38;;;;;;;;;;5041721;28;20071;-63
2022/09/13 08:14:47;;;;;;;6.10;1.70;;;;;;;;;;5033816;28;20052;-63
2022/09/13 08:17:13;;;;;;;4.75;1.08;;;;;;;;;;5036053;28;20052;-62
2022/09/13 08:19:39;;;;;;;12.25;1.42;;;;;;;;;;5021821;28;20045;-62
2022/09/13 08:22:05;;;;;;;3.38;0.95;;;;;;;;;;5040560;28;20436;-63
2022/09/13 08:24:31;;;;;;;4.68;1.38;;;;;;;;;;5034986;28;20048;-63
2022/09/13 08:26:57;;;;;;;4.10;1.00;;;;;;;;;;5038548;28;20033;-62
2022/09/13 08:29:24;;;;;;;6.55;1.48;;;;;;;;;;5036487;28;20035;-64
2022/09/13 08:31:50;;;;;;;5.35;1.10;;;;;;;;;;5044345;28;20080;-64
2022/09/13 08:34:17;;;;;;;4.82;0.80;;;;;;;;;;5031680;28;20117;-63
2022/09/13 08:36:43;;;;;;;3.58;0.85;;;;;;;;;;5037435;28;20515;-62
2022/09/13 08:39:12;;;;;;;6.40;1.05;;;;;;;;;;5044360;28;20392;-63
2022/09/13 08:41:41;;;;;;;4.90;1.08;;;;;;;;;;5037392;28;20155;-62
2022/09/13 08:44:25;;;;;;;4.85;0.88;;;;;;;;;;5035458;28;20041;-64
2022/09/13 08:46:52;;;;;;;2.40;0.90;;;;;;;;;;5029365;28;20064;-64
2022/09/13 08:49:18;;;;;;;2.63;0.77;;;;;;;;;;5041765;28;20041;-63
2022/09/13 08:51:47;;;;;;;3.42;1.05;;;;;;;;;;5036118;28;20053;-63
2022/09/13 08:54:14;;;;;;;5.22;1.58;;;;;;;;;;5038526;28;20151;-63
2022/09/13 08:57:06;;;;;;;2.13;0.65;;;;;;;;;;5043227;28;20048;-64
2022/09/13 08:59:46;;;;;;;5.43;1.10;;;;;;;;;;5012197;28;20098;-63
2022/09/13 09:02:18;;;;;;;2.45;0.70;;;;;;;;;;5040426;28;20049;-63
2022/09/13 09:04:50;;;;;;;3.95;0.55;;;;;;;;;;5041121;28;20041;-62
2022/09/13 09:07:19;;;;;;;4.85;0.90;;;;;;;;;;5038847;28;20120;-61
2022/09/13 09:09:49;;;;;;;1.67;0.68;;;;;;;;;;5038698;28;20157;-63
2022/09/13 09:12:39;;;;;;;6.55;0.68;;;;;;;;;;5041240;28;20531;-63
2022/09/13 09:15:13;;;;;;;1.83;0.70;;;;;;;;;;5036980;28;20084;-65
2022/09/13 09:17:48;;;;;;;2.42;0.60;;;;;;;;;;5046730;28;20116;-66
2022/09/13 09:20:23;;;;;;;2.33;0.65;;;;;;;;;;5046716;28;20046;-64
2022/09/13 09:22:51;;;;;;;2.88;0.70;;;;;;;;;;5051885;28;20121;-64
2022/09/13 09:25:17;;;;;;;2.75;0.50;;;;;;;;;;5046544;28;20498;-64
2022/09/13 09:27:43;;;;;;;2.30;0.60;;;;;;;;;;5030445;28;20041;-64
2022/09/13 09:30:13;;;;;;;2.45;0.60;;;;;;;;;;5046297;28;20494;-66
2022/09/13 09:32:58;;;;;;;1.48;0.60;;;;;;;;;;5047177;28;20064;-65
2022/09/13 09:35:31;;;;;;;3.10;0.50;;;;;;;;;;5049128;28;20143;-63
2022/09/13 09:38:10;;;;;;;3.25;0.60;;;;;;;;;;5042430;28;20045;-63
2022/09/13 09:40:37;;;;;;;3.30;0.60;;;;;;;;;;5045499;28;20049;-64
2022/09/13 09:43:11;;;;;;;3.58;0.68;;;;;;;;;;5052021;28;20056;-64
2022/09/13 09:45:40;;;;;;;2.83;0.60;;;;;;;;;;5046528;28;20063;-64
2022/09/13 09:48:08;;;;;;;2.70;0.68;;;;;;;;;;5044322;28;20052;-65
2022/09/13 09:50:42;;;;;;;4.75;0.82;;;;;;;;;;5041359;28;20544;-63
2022/09/13 09:53:14;;;;;;;6.15;0.90;;;;;;;;;;5047134;28;20125;-64
2022/09/13 09:55:50;;;;;;;4.25;0.98;;;;;;;;;;5046647;28;20071;-64
2022/09/13 09:58:17;;;;;;;3.05;0.60;;;;;;;;;;5047731;28;20062;-64
2022/09/13 10:00:51;;;;;;;3.38;0.60;;;;;;;;;;5046198;28;20060;-63
2022/09/13 10:03:18;;;;;;;3.30;0.40;;;;;;;;;;5037162;28;20083;-63
2022/09/13 10:05:45;;;;;;;2.53;0.60;;;;;;;;;;5027942;28;20049;-65
2022/09/13 10:08:32;;;;;;;6.38;0.50;;;;;;;;;;5035606;28;20492;-65
2022/09/13 10:11:01;;;;;;;3.60;0.47;;;;;;;;;;5048314;28;20061;-63
2022/09/13 10:13:28;;;;;;;4.75;0.60;;;;;;;;;;5046878;28;20166;-64
2022/09/13 10:15:57;;;;;;;4.55;0.88;;;;;;;;;;5044605;28;20037;-64
2022/09/13 10:18:24;;;;;;;4.53;0.77;;;;;;;;;;5043016;28;20040;-65
2022/09/13 10:21:09;;;;;;;8.05;0.90;;;;;;;;;;5048436;28;20068;-65
2022/09/13 10:23:36;;;;;;;3.72;0.57;;;;;;;;;;5050201;28;20075;-64
2022/09/13 10:26:08;;;;;;;5.75;0.80;;;;;;;;;;5018514;28;20403;-64
2022/09/13 10:28:49;;;;;;;4.07;0.70;;;;;;;;;;5046510;28;20049;-64
2022/09/13 10:31:17;;;;;;;4.50;1.00;;;;;;;;;;5049591;28;20067;-64
2022/09/13 10:33:58;;;;;;;3.00;0.60;;;;;;;;;;5039224;28;20484;-63
2022/09/13 10:36:26;;;;;;;4.95;0.52;;;;;;;;;;5049442;28;20056;-63
2022/09/13 10:39:05;;;;;;;5.20;0.77;;;;;;;;;;5050715;28;20041;-63
2022/09/13 10:41:37;;;;;;;7.75;0.60;;;;;;;;;;5050345;28;20040;-63
2022/09/13 10:44:05;;;;;;;4.75;0.80;;;;;;;;;;5045932;28;20045;-65
2022/09/13 10:46:37;;;;;;;2.42;0.35;;;;;;;;;;5048224;28;20120;-64
2022/09/13 10:49:03;;;;;;;6.13;0.80;;;;;;;;;;5042612;28;20163;-63
2022/09/13 10:51:33;;;;;;;2.88;0.50;;;;;;;;;;5051222;28;20690;-64
2022/09/13 10:54:14;;;;;;;4.55;0.50;;;;;;;;;;5048054;28;20056;-65
2022/09/13 10:56:42;;;;;;;4.57;0.60;;;;;;;;;;5045021;28;20041;-63
2022/09/13 10:59:27;;;;;;;2.42;0.43;;;;;;;;;;5048988;28;20545;-64
2022/09/13 11:02:23;;;;;;;2.33;0.73;;;;;;;;;;5043125;28;20049;-64
2022/09/13 11:04:52;;;;;;;1.95;0.40;;;;;;;;;;5017736;28;20391;-63
2022/09/13 11:07:37;;;;;;;6.75;1.10;;;;;;;;;;5049048;28;20044;-63
2022/09/13 11:10:09;;;;;;;3.67;0.77;;;;;;;;;;5039047;28;20053;-64
2022/09/13 11:12:47;;;;;;;4.13;0.52;;;;;;;;;;5041000;28;20109;-64
2022/09/13 11:15:38;;;;;;;2.97;0.70;;;;;;;;;;5045337;28;20079;-64
2022/09/13 11:18:13;;;;;;;4.05;1.00;;;;;;;;;;5047190;28;20041;-64
2022/09/13 11:20:51;;;;;;;3.13;0.55;;;;;;;;;;5041226;28;20034;-64
2022/09/13 11:23:30;;;;;;;5.43;0.60;;;;;;;;;;5048079;28;20039;-64
2022/09/13 11:26:14;;;;;;;6.18;0.43;;;;;;;;;;5041446;28;20120;-64
2022/09/13 11:28:49;;;;;;;3.83;0.77;;;;;;;;;;5030995;28;20046;-64
2022/09/13 11:31:24;;;;;;;4.38;0.85;;;;;;;;;;5017453;28;20041;-64
2022/09/13 11:33:53;;;;;;;3.45;0.95;;;;;;;;;;5049398;28;20041;-64
2022/09/13 11:36:28;;;;;;;3.33;0.55;;;;;;;;;;5046704;28;20438;-64
2022/09/13 11:39:13;;;;;;;7.05;0.77;;;;;;;;;;5042659;28;20311;-65
2022/09/13 11:41:45;;;;;;;4.30;0.70;;;;;;;;;;5045175;28;20103;-64
2022/09/13 11:44:33;;;;;;;4.90;0.57;;;;;;;;;;5050860;28;20033;-64
2022/09/13 11:47:08;;;;;;;3.70;0.70;;;;;;;;;;5041363;28;20389;-64
2022/09/13 11:49:37;;;;;;;4.00;0.60;;;;;;;;;;5045015;28;20780;-64
2022/09/13 11:52:09;;;;;;;4.65;0.85;;;;;;;;;;5027123;28;20167;-64
2022/09/13 11:54:35;;;;;;;3.53;1.35;;;;;;;;;;5042521;28;20098;-62
2022/09/13 11:57:04;;;;;;;7.20;0.70;;;;;;;;;;5044520;28;20036;-62
2022/09/13 11:59:42;;;;;;;3.75;0.57;;;;;;;;;;5047165;28;20060;-62
2022/09/13 12:02:17;;;;;;;6.60;0.95;;;;;;;;;;5038920;28;20049;-64
2022/09/13 12:04:47;;;;;;;4.55;0.68;;;;;;;;;;5038590;28;20044;-63
2022/09/13 12:07:42;;;;;;;5.03;0.80;;;;;;;;;;5046512;28;20041;-63
2022/09/13 12:10:17;;;;;;;5.53;0.88;;;;;;;;;;5084132;27;20507;-62
2022/09/13 12:12:48;;;;;;;3.80;0.63;;;;;;;;;;5081860;28;20043;-65
2022/09/13 12:15:16;;;;;;;5.05;0.70;;;;;;;;;;5085543;28;20101;-64
2022/09/13 12:17:48;;;;;;;6.20;1.45;;;;;;;;;;5084362;28;20090;-63
2022/09/13 12:20:34;;;;;;;4.07;0.60;;;;;;;;;;5085213;28;20044;-64
2022/09/13 12:23:01;;;;;;;5.28;1.40;;;;;;;;;;5083225;28;20067;-61
2022/09/13 12:25:49;;;;;;;6.93;0.70;;;;;;;;;;5082637;28;20056;-63
2022/09/13 12:28:19;;;;;;;4.13;0.80;;;;;;;;;;5086169;28;20149;-62
2022/09/13 12:31:03;;;;;;;2.50;0.77;;;;;;;;;;5081574;28;20048;-63
2022/09/13 12:33:30;;;;;;;4.07;0.57;;;;;;;;;;5080921;28;20093;-62
2022/09/13 12:35:56;;;;;;;3.20;0.50;;;;;;;;;;5088668;28;20437;-63
2022/09/13 12:38:22;;;;;;;2.72;0.68;;;;;;;;;;5084520;28;20097;-62
2022/09/13 12:41:07;;;;;;;7.93;0.90;;;;;;;;;;5082372;28;20040;-62
2022/09/13 12:43:52;;;;;;;5.68;0.80;;;;;;;;;;5082386;28;20048;-62
2022/09/13 12:46:21;;;;;;;4.00;0.85;;;;;;;;;;5070488;28;20135;-62
2022/09/13 12:48:53;;;;;;;3.00;0.50;;;;;;;;;;5071426;28;20145;-63
2022/09/13 12:51:38;;;;;;;5.82;0.95;;;;;;;;;;5080631;28;20482;-64
2022/09/13 12:54:23;;;;;;;4.03;0.63;;;;;;;;;;5115842;28;20172;-60
2022/09/13 12:56:52;;;;;;;2.10;0.40;;;;;;;;;;5079415;28;20076;-63
2022/09/13 12:59:25;;;;;;;5.13;0.45;;;;;;;;;;5096032;28;20050;-63
2022/09/13 13:01:51;;;;;;;7.63;0.60;;;;;;;;;;5098582;28;20075;-63
2022/09/13 13:04:17;;;;;;;2.30;0.73;;;;;;;;;;5084885;28;20052;-62
2022/09/13 13:06:54;;;;;;;3.90;0.80;;;;;;;;;;5082574;28;20093;-63
2022/09/13 13:09:22;;;;;;;2.60;0.65;;;;;;;;;;5077122;28;20553;-64
2022/09/13 13:11:50;;;;;;;3.75;0.60;;;;;;;;;;5078669;28;20085;-65
2022/09/13 13:14:26;;;;;;;3.78;0.80;;;;;;;;;;5073118;28;20075;-65
2022/09/13 13:16:52;;;;;;;6.38;1.00;;;;;;;;;;5090778;28;20445;-62
2022/09/13 13:19:29;;;;;;;3.70;0.65;;;;;;;;;;5081508;28;20055;-62
2022/09/13 13:22:16;;;;;;;5.18;0.80;;;;;;;;;;5068306;28;20036;-62
2022/09/13 13:24:46;;;;;;;3.95;0.70;;;;;;;;;;5069199;28;20051;-62
2022/09/13 13:27:35;;;;;;;3.45;0.77;;;;;;;;;;5071875;28;20048;-62
2022/09/13 13:30:25;;;;;;;5.47;1.05;;;;;;;;;;5070401;28;20801;-63
2022/09/13 13:33:12;;;;;;;3.78;0.85;;;;;;;;;;5070403;28;20113;-62
2022/09/13 13:35:39;;;;;;;3.63;0.60;;;;;;;;;;5071949;28;20045;-62
2022/09/13 13:38:14;;;;;;;2.72;0.70;;;;;;;;;;5071942;28;20050;-62
2022/09/13 13:40:40;;;;;;;5.13;0.70;;;;;;;;;;5069845;28;20036;-62
2022/09/13 13:43:35;;;;;;;4.28;0.70;;;;;;;;;;5071064;28;20157;-62
2022/09/13 13:46:10;;;;;;;3.00;0.60;;;;;;;;;;5071135;28;20070;-62
2022/09/13 13:48:38;;;;;;;3.03;0.75;;;;;;;;;;5072007;28;20064;-62
2022/09/13 13:51:14;;;;;;;4.03;0.80;;;;;;;;;;5071910;28;20040;-62
2022/09/13 13:53:42;;;;;;;4.70;0.93;;;;;;;;;;5071889;28;20166;-62
2022/09/13 13:56:29;;;;;;;4.45;0.73;;;;;;;;;;5071720;28;20049;-62
2022/09/13 13:59:08;;;;;;;5.35;0.70;;;;;;;;;;5070260;28;20044;-62
2022/09/13 14:01:36;;;;;;;3.20;0.45;;;;;;;;;;5071295;28;20091;-62
2022/09/13 14:04:20;;;;;;;10.95;0.75;;;;;;;;;;5070692;28;20048;-62
2022/09/13 14:06:51;;;;;;;4.05;0.70;;;;;;;;;;5070042;28;20051;-62
2022/09/13 14:09:28;;;;;;;4.03;1.02;;;;;;;;;;5070764;28;20052;-62
2022/09/13 14:11:54;;;;;;;6.00;0.95;;;;;;;;;;5070920;28;20480;-62
2022/09/13 14:14:38;;;;;;;5.57;0.77;;;;;;;;;;5071268;28;20037;-62
2022/09/13 14:17:23;;;;;;;3.97;1.00;;;;;;;;;;5072044;28;20044;-62
2022/09/13 14:19:54;;;;;;;4.78;0.70;;;;;;;;;;5067900;28;20036;-62
2022/09/13 14:22:21;;;;;;;5.50;0.80;;;;;;;;;;5070089;28;20545;-62
2022/09/13 14:24:48;;;;;;;4.22;0.70;;;;;;;;;;5071707;28;20067;-62
2022/09/13 14:27:16;;;;;;;5.18;0.90;;;;;;;;;;5071069;28;20037;-62
2022/09/13 14:29:47;;;;;;;5.30;0.73;;;;;;;;;;5071637;28;20093;-62
2022/09/13 14:32:15;;;;;;;7.45;1.17;;;;;;;;;;5070638;28;20040;-62
2022/09/13 14:34:50;;;;;;;5.53;0.95;;;;;;;;;;5071662;28;20068;-62
2022/09/13 14:37:17;;;;;;;5.35;0.88;;;;;;;;;;5072099;28;20040;-62
2022/09/13 14:39:53;;;;;;;8.02;0.90;;;;;;;;;;5072195;28;20079;-62
2022/09/13 14:42:19;;;;;;;5.43;0.80;;;;;;;;;;5071626;28;20072;-62
2022/09/13 14:44:46;;;;;;;5.38;0.90;;;;;;;;;;5070749;28;20051;-62
2022/09/13 14:47:30;;;;;;;4.60;0.90;;;;;;;;;;5071908;28;20109;-62
2022/09/13 14:50:02;;;;;;;5.82;1.25;;;;;;;;;;5071374;28;20044;-62
2022/09/13 14:52:33;;;;;;;6.47;1.48;;;;;;;;;;5071820;28;20145;-62
2022/09/13 14:55:04;;;;;;;5.90;1.10;;;;;;;;;;5071721;28;20429;-62
2022/09/13 14:57:33;;;;;;;5.85;1.00;;;;;;;;;;5071283;28;20055;-62